Terminal Aerodrome Forecast
Issued by NWS Blacksburg, VA

Home | Current Version | Previous Version | Text Only | Print | Product List | Glossary On
Versions: 1 2 3 4 5 6 7 8 9 10 11 12 13 14
000
FTUS41 KRNK 131735
TAFROA
TAF
KROA 131735Z 1318/1418 26009KT P6SM FEW250
     FM132100 22008G18KT P6SM BKN120
     FM140600 25012G20KT P6SM BKN120
     FM141200 29014G25KT P6SM -SHSN BKN040
     FM141500 29016G33KT P6SM SCT120=

USA.gov is the U.S. government's official web portal to all federal, state and local government web resources and services.